sensor_id;sensor_type;location;lat;lon;timestamp;pressure;altitude;pressure_sealevel;temperature;humidity
35226;BME280;21813;49.686;21.766;2023-05-21T00:01:35;98900.84;;;13.56;100.00
35226;BME280;21813;49.686;21.766;2023-05-21T00:04:01;98892.97;;;13.56;100.00
35226;BME280;21813;49.686;21.766;2023-05-21T00:06:28;98889.22;;;13.49;100.00
35226;BME280;21813;49.686;21.766;2023-05-21T00:08:54;98898.59;;;13.52;100.00
35226;BME280;21813;49.686;21.766;2023-05-21T00:11:21;98878.22;;;13.35;100.00
35226;BME280;21813;49.686;21.766;2023-05-21T00:13:48;98880.28;;;13.31;100.00
35226;BME280;21813;49.686;21.766;2023-05-21T00:16:15;98871.13;;;13.25;100.00
35226;BME280;21813;49.686;21.766;2023-05-21T00:18:40;98892.28;;;13.34;100.00
35226;BME280;21813;49.686;21.766;2023-05-21T00:21:11;98898.06;;;13.37;100.00
35226;BME280;21813;49.686;21.766;2023-05-21T00:23:40;98895.84;;;13.33;100.00
35226;BME280;21813;49.686;21.766;2023-05-21T00:30:04;98870.41;;;12.92;100.00
35226;BME280;21813;49.686;21.766;2023-05-21T00:32:32;98865.94;;;12.82;100.00
35226;BME280;21813;49.686;21.766;2023-05-21T00:34:57;98893.47;;;12.98;100.00
35226;BME280;21813;49.686;21.766;2023-05-21T00:37:26;98867.25;;;12.77;100.00
35226;BME280;21813;49.686;21.766;2023-05-21T00:57:13;98878.22;;;12.71;100.00
35226;BME280;21813;49.686;21.766;2023-05-21T00:59:59;98884.50;;;12.68;100.00
35226;BME280;21813;49.686;21.766;2023-05-21T01:03:04;98861.03;;;12.57;100.00
35226;BME280;21813;49.686;21.766;2023-05-21T01:05:58;98849.28;;;12.52;100.00
35226;BME280;21813;49.686;21.766;2023-05-21T01:08:30;98878.22;;;12.71;100.00
35226;BME280;21813;49.686;21.766;2023-05-21T01:11:26;98890.94;;;12.75;100.00
35226;BME280;21813;49.686;21.766;2023-05-21T01:14:21;98878.25;;;12.60;100.00
35226;BME280;21813;49.686;21.766;2023-05-21T01:16:50;98887.66;;;12.62;100.00
35226;BME280;21813;49.686;21.766;2023-05-21T01:19:19;98852.03;;;12.39;100.00
35226;BME280;21813;49.686;21.766;2023-05-21T01:22:16;98870.31;;;12.50;100.00
35226;BME280;21813;49.686;21.766;2023-05-21T01:24:48;98848.34;;;12.30;100.00
35226;BME280;21813;49.686;21.766;2023-05-21T01:27:15;98878.50;;;12.46;100.00
35226;BME280;21813;49.686;21.766;2023-05-21T01:29:41;98868.19;;;12.33;100.00
35226;BME280;21813;49.686;21.766;2023-05-21T01:34:40;98845.53;;;12.11;100.00
35226;BME280;21813;49.686;21.766;2023-05-21T01:37:28;98886.50;;;12.33;100.00
35226;BME280;21813;49.686;21.766;2023-05-21T01:39:59;98879.72;;;12.30;100.00
35226;BME280;21813;49.686;21.766;2023-05-21T01:42:30;98859.41;;;12.12;100.00
35226;BME280;21813;49.686;21.766;2023-05-21T01:44:57;98879.59;;;12.21;100.00
35226;BME280;21813;49.686;21.766;2023-05-21T01:47:28;98880.78;;;12.17;100.00
35226;BME280;21813;49.686;21.766;2023-05-21T01:50:39;98850.66;;;11.90;100.00
35226;BME280;21813;49.686;21.766;2023-05-21T01:53:51;98882.81;;;12.13;100.00
35226;BME280;21813;49.686;21.766;2023-05-21T02:00:22;98886.25;;;12.03;100.00
35226;BME280;21813;49.686;21.766;2023-05-21T02:03:30;98876.03;;;11.88;100.00
35226;BME280;21813;49.686;21.766;2023-05-21T02:05:58;98875.00;;;11.91;100.00
35226;BME280;21813;49.686;21.766;2023-05-21T02:08:23;98862.06;;;11.78;100.00
35226;BME280;21813;49.686;21.766;2023-05-21T02:10:50;98848.69;;;11.70;100.00
35226;BME280;21813;49.686;21.766;2023-05-21T02:13:16;98831.75;;;11.65;100.00
35226;BME280;21813;49.686;21.766;2023-05-21T02:15:46;98880.31;;;11.89;100.00
35226;BME280;21813;49.686;21.766;2023-05-21T02:18:12;98875.09;;;11.89;100.00
35226;BME280;21813;49.686;21.766;2023-05-21T02:20:42;98846.59;;;11.75;100.00
35226;BME280;21813;49.686;21.766;2023-05-21T02:23:08;98842.78;;;11.79;100.00
35226;BME280;21813;49.686;21.766;2023-05-21T02:25:35;98842.78;;;11.79;100.00
35226;BME280;21813;49.686;21.766;2023-05-21T02:28:01;98859.44;;;11.89;100.00
35226;BME280;21813;49.686;21.766;2023-05-21T02:30:28;98850.06;;;11.87;100.00
35226;BME280;21813;49.686;21.766;2023-05-21T02:32:54;98828.47;;;11.74;100.00
35226;BME280;21813;49.686;21.766;2023-05-21T02:35:23;98855.88;;;11.90;100.00
35226;BME280;21813;49.686;21.766;2023-05-21T02:37:49;98817.63;;;11.67;100.00
35226;BME280;21813;49.686;21.766;2023-05-21T02:40:17;98864.66;;;11.89;100.00
35226;BME280;21813;49.686;21.766;2023-05-21T02:42:43;98850.78;;;11.78;100.00
35226;BME280;21813;49.686;21.766;2023-05-21T02:45:11;98814.75;;;11.59;100.00
35226;BME280;21813;49.686;21.766;2023-05-21T02:47:37;98848.50;;;11.73;100.00
35226;BME280;21813;49.686;21.766;2023-05-21T02:50:05;98815.81;;;11.57;100.00
35226;BME280;21813;49.686;21.766;2023-05-21T02:52:31;98847.06;;;11.69;100.00
35226;BME280;21813;49.686;21.766;2023-05-21T02:54:59;98836.25;;;11.63;100.00
35226;BME280;21813;49.686;21.766;2023-05-21T02:57:24;98835.78;;;11.69;100.00
35226;BME280;21813;49.686;21.766;2023-05-21T02:59:53;98842.47;;;11.73;100.00
35226;BME280;21813;49.686;21.766;2023-05-21T03:02:19;98814.75;;;11.59;100.00
35226;BME280;21813;49.686;21.766;2023-05-21T03:04:45;98845.06;;;11.84;100.00
35226;BME280;21813;49.686;21.766;2023-05-21T03:07:13;98827.22;;;11.67;100.00
35226;BME280;21813;49.686;21.766;2023-05-21T03:09:49;98844.00;;;11.75;100.00
35226;BME280;21813;49.686;21.766;2023-05-21T03:12:16;98845.91;;;11.73;100.00
35226;BME280;21813;49.686;21.766;2023-05-21T03:14:43;98841.22;;;11.66;100.00
35226;BME280;21813;49.686;21.766;2023-05-21T03:17:10;98812.03;;;11.49;100.00
35226;BME280;21813;49.686;21.766;2023-05-21T03:19:40;98810.59;;;11.45;100.00
35226;BME280;21813;49.686;21.766;2023-05-21T03:22:06;98842.28;;;11.63;100.00
35226;BME280;21813;49.686;21.766;2023-05-21T03:24:32;98842.28;;;11.63;100.00
35226;BME280;21813;49.686;21.766;2023-05-21T03:26:59;98832.56;;;11.54;100.00
35226;BME280;21813;49.686;21.766;2023-05-21T03:29:28;98810.56;;;11.34;100.00
35226;BME280;21813;49.686;21.766;2023-05-21T03:31:54;98833.00;;;11.48;100.00
35226;BME280;21813;49.686;21.766;2023-05-21T03:34:21;98827.91;;;11.35;100.00
35226;BME280;21813;49.686;21.766;2023-05-21T03:36:46;98842.38;;;11.39;100.00
35226;BME280;21813;49.686;21.766;2023-05-21T03:39:14;98847.50;;;11.41;100.00
35226;BME280;21813;49.686;21.766;2023-05-21T03:41:40;98821.81;;;11.24;100.00
35226;BME280;21813;49.686;21.766;2023-05-21T03:44:07;98824.41;;;11.24;100.00
35226;BME280;21813;49.686;21.766;2023-05-21T03:53:33;98834.19;;;11.33;100.00
35226;BME280;21813;49.686;21.766;2023-05-21T03:56:04;98840.84;;;11.48;100.00
35226;BME280;21813;49.686;21.766;2023-05-21T04:01:10;98858.13;;;11.73;100.00
35226;BME280;21813;49.686;21.766;2023-05-21T04:03:40;98816.44;;;11.60;100.00
35226;BME280;21813;49.686;21.766;2023-05-21T04:06:06;98833.81;;;11.83;100.00
35226;BME280;21813;49.686;21.766;2023-05-21T04:08:36;98818.94;;;11.84;100.00
35226;BME280;21813;49.686;21.766;2023-05-21T04:13:40;98847.28;;;12.22;100.00
35226;BME280;21813;49.686;21.766;2023-05-21T04:16:13;98821.53;;;12.17;100.00
35226;BME280;21813;49.686;21.766;2023-05-21T04:18:44;98838.50;;;12.34;100.00
35226;BME280;21813;49.686;21.766;2023-05-21T04:21:12;98847.59;;;12.51;100.00
35226;BME280;21813;49.686;21.766;2023-05-21T04:23:38;98831.81;;;12.52;100.00
35226;BME280;21813;49.686;21.766;2023-05-21T04:26:05;98820.38;;;12.53;100.00
35226;BME280;21813;49.686;21.766;2023-05-21T04:28:31;98834.13;;;12.66;100.00
35226;BME280;21813;49.686;21.766;2023-05-21T04:31:00;98808.72;;;12.57;100.00
35226;BME280;21813;49.686;21.766;2023-05-21T04:33:25;98829.31;;;12.82;100.00
35226;BME280;21813;49.686;21.766;2023-05-21T04:35:54;98834.34;;;12.95;100.00
35226;BME280;21813;49.686;21.766;2023-05-21T04:38:20;98829.13;;;12.95;100.00
35226;BME280;21813;49.686;21.766;2023-05-21T04:40:50;98832.19;;;13.00;100.00
35226;BME280;21813;49.686;21.766;2023-05-21T04:43:20;98839.09;;;13.01;100.00
35226;BME280;21813;49.686;21.766;2023-05-21T04:45:57;98810.44;;;13.00;100.00
35226;BME280;21813;49.686;21.766;2023-05-21T04:48:24;98818.25;;;13.11;100.00
35226;BME280;21813;49.686;21.766;2023-05-21T04:50:52;98809.47;;;13.12;100.00
35226;BME280;21813;49.686;21.766;2023-05-21T04:53:21;98822.47;;;13.23;100.00
35226;BME280;21813;49.686;21.766;2023-05-21T04:55:48;98816.56;;;13.21;100.00
35226;BME280;21813;49.686;21.766;2023-05-21T04:58:13;98808.19;;;13.27;100.00
35226;BME280;21813;49.686;21.766;2023-05-21T05:00:48;98810.44;;;13.32;100.00
35226;BME280;21813;49.686;21.766;2023-05-21T05:03:28;98817.34;;;13.42;100.00
35226;BME280;21813;49.686;21.766;2023-05-21T05:06:03;98824.63;;;13.59;100.00
35226;BME280;21813;49.686;21.766;2023-05-21T05:08:29;98838.50;;;13.81;100.00
35226;BME280;21813;49.686;21.766;2023-05-21T05:11:00;98821.44;;;13.86;100.00
35226;BME280;21813;49.686;21.766;2023-05-21T05:13:25;98828.13;;;14.00;100.00
35226;BME280;21813;49.686;21.766;2023-05-21T05:16:16;98818.50;;;14.10;100.00
35226;BME280;21813;49.686;21.766;2023-05-21T05:19:10;98822.56;;;14.33;100.00
35226;BME280;21813;49.686;21.766;2023-05-21T05:28:34;98816.00;;;14.68;100.00
35226;BME280;21813;49.686;21.766;2023-05-21T05:31:11;98832.19;;;14.92;100.00
35226;BME280;21813;49.686;21.766;2023-05-21T05:33:36;98829.00;;;14.98;100.00
35226;BME280;21813;49.686;21.766;2023-05-21T05:36:05;98837.97;;;15.24;100.00
35226;BME280;21813;49.686;21.766;2023-05-21T05:38:34;98812.16;;;15.76;100.00
35226;BME280;21813;49.686;21.766;2023-05-21T05:41:01;98821.47;;;16.43;100.00
35226;BME280;21813;49.686;21.766;2023-05-21T05:43:27;98832.16;;;16.86;100.00
35226;BME280;21813;49.686;21.766;2023-05-21T05:45:55;98802.59;;;16.74;100.00
35226;BME280;21813;49.686;21.766;2023-05-21T05:48:21;98818.22;;;16.76;100.00
35226;BME280;21813;49.686;21.766;2023-05-21T05:50:48;98818.53;;;16.73;98.65
35226;BME280;21813;49.686;21.766;2023-05-21T05:53:14;98818.34;;;16.57;98.11
35226;BME280;21813;49.686;21.766;2023-05-21T05:55:41;98831.81;;;16.54;97.62
35226;BME280;21813;49.686;21.766;2023-05-21T05:58:06;98826.47;;;16.46;97.63
35226;BME280;21813;49.686;21.766;2023-05-21T06:00:33;98828.09;;;16.47;96.42
35226;BME280;21813;49.686;21.766;2023-05-21T06:03:02;98826.91;;;16.41;97.32
35226;BME280;21813;49.686;21.766;2023-05-21T06:05:42;98842.78;;;16.49;96.49
35226;BME280;21813;49.686;21.766;2023-05-21T06:08:08;98822.25;;;16.53;97.22
35226;BME280;21813;49.686;21.766;2023-05-21T06:10:36;98823.03;;;16.63;96.64
35226;BME280;21813;49.686;21.766;2023-05-21T06:13:02;98835.16;;;16.73;98.35
35226;BME280;21813;49.686;21.766;2023-05-21T06:15:47;98809.66;;;16.74;98.95
35226;BME280;21813;49.686;21.766;2023-05-21T06:18:21;98832.00;;;16.88;97.96
35226;BME280;21813;49.686;21.766;2023-05-21T06:20:49;98818.69;;;16.89;98.32
35226;BME280;21813;49.686;21.766;2023-05-21T06:23:14;98821.69;;;16.94;96.82
35226;BME280;21813;49.686;21.766;2023-05-21T06:25:42;98832.97;;;17.04;95.45
35226;BME280;21813;49.686;21.766;2023-05-21T06:28:08;98836.25;;;17.06;96.99
35226;BME280;21813;49.686;21.766;2023-05-21T06:30:40;98838.69;;;17.17;95.63
35226;BME280;21813;49.686;21.766;2023-05-21T06:33:06;98821.38;;;17.15;96.52
35226;BME280;21813;49.686;21.766;2023-05-21T06:35:40;98824.94;;;17.32;95.90
35226;BME280;21813;49.686;21.766;2023-05-21T06:38:06;98821.03;;;17.36;94.58
35226;BME280;21813;49.686;21.766;2023-05-21T06:40:33;98807.84;;;17.36;95.90
35226;BME280;21813;49.686;21.766;2023-05-21T06:43:00;98818.66;;;17.50;95.33
35226;BME280;21813;49.686;21.766;2023-05-21T06:45:30;98814.53;;;17.48;95.83
35226;BME280;21813;49.686;21.766;2023-05-21T06:48:22;98779.91;;;17.43;96.37
35226;BME280;21813;49.686;21.766;2023-05-21T06:51:25;98810.94;;;17.75;94.50
35226;BME280;21813;49.686;21.766;2023-05-21T06:54:11;98792.88;;;17.88;93.00
35226;BME280;21813;49.686;21.766;2023-05-21T06:56:47;98792.44;;;18.08;93.43
35226;BME280;21813;49.686;21.766;2023-05-21T06:59:13;98797.09;;;18.23;92.20
35226;BME280;21813;49.686;21.766;2023-05-21T07:01:49;98774.16;;;18.15;89.58
35226;BME280;21813;49.686;21.766;2023-05-21T07:04:16;98787.22;;;18.25;90.03
35226;BME280;21813;49.686;21.766;2023-05-21T07:06:44;98795.16;;;18.33;90.05
35226;BME280;21813;49.686;21.766;2023-05-21T07:09:10;98789.56;;;18.36;90.64
35226;BME280;21813;49.686;21.766;2023-05-21T07:11:38;98781.97;;;18.41;91.01
35226;BME280;21813;49.686;21.766;2023-05-21T07:14:41;98783.16;;;18.46;91.58
35226;BME280;21813;49.686;21.766;2023-05-21T07:17:12;98773.41;;;18.39;91.54
35226;BME280;21813;49.686;21.766;2023-05-21T07:20:11;98762.03;;;18.38;91.38
35226;BME280;21813;49.686;21.766;2023-05-21T07:23:38;98771.13;;;18.52;90.60
35226;BME280;21813;49.686;21.766;2023-05-21T07:26:42;98787.53;;;18.72;89.69
35226;BME280;21813;49.686;21.766;2023-05-21T07:30:02;98774.97;;;18.66;89.04
35226;BME280;21813;49.686;21.766;2023-05-21T07:32:42;98752.38;;;18.71;88.37
35226;BME280;21813;49.686;21.766;2023-05-21T07:35:13;98783.25;;;19.03;88.72
35226;BME280;21813;49.686;21.766;2023-05-21T07:37:53;98761.25;;;19.11;85.07
35226;BME280;21813;49.686;21.766;2023-05-21T07:40:19;98763.56;;;19.30;85.63
35226;BME280;21813;49.686;21.766;2023-05-21T07:42:45;98762.38;;;19.49;83.70
35226;BME280;21813;49.686;21.766;2023-05-21T07:45:20;98748.00;;;19.59;79.08
35226;BME280;21813;49.686;21.766;2023-05-21T07:47:46;98751.28;;;19.69;79.05
35226;BME280;21813;49.686;21.766;2023-05-21T07:50:24;98774.31;;;19.92;74.43
35226;BME280;21813;49.686;21.766;2023-05-21T07:53:04;98759.28;;;19.92;74.13
35226;BME280;21813;49.686;21.766;2023-05-21T07:55:30;98764.38;;;20.02;73.91
35226;BME280;21813;49.686;21.766;2023-05-21T07:57:56;98774.22;;;20.16;71.64
35226;BME280;21813;49.686;21.766;2023-05-21T08:00:22;98757.00;;;20.20;71.04
35226;BME280;21813;49.686;21.766;2023-05-21T08:02:50;98756.75;;;20.38;71.28
35226;BME280;21813;49.686;21.766;2023-05-21T08:05:16;98763.81;;;20.45;72.05
35226;BME280;21813;49.686;21.766;2023-05-21T08:07:46;98769.88;;;20.54;71.84
35226;BME280;21813;49.686;21.766;2023-05-21T08:10:16;98771.88;;;20.52;71.64
35226;BME280;21813;49.686;21.766;2023-05-21T08:12:46;98778.13;;;20.59;68.95
35226;BME280;21813;49.686;21.766;2023-05-21T08:15:12;98763.41;;;20.56;70.33
35226;BME280;21813;49.686;21.766;2023-05-21T08:17:39;98750.34;;;20.55;71.00
35226;BME280;21813;49.686;21.766;2023-05-21T08:20:08;98754.72;;;20.70;67.22
35226;BME280;21813;49.686;21.766;2023-05-21T08:22:52;98767.19;;;20.85;69.11
35226;BME280;21813;49.686;21.766;2023-05-21T08:36:49;98756.72;;;21.06;65.83
35226;BME280;21813;49.686;21.766;2023-05-21T08:39:17;98753.69;;;21.09;63.75
35226;BME280;21813;49.686;21.766;2023-05-21T08:41:43;98755.97;;;21.20;65.60
35226;BME280;21813;49.686;21.766;2023-05-21T08:44:18;98745.72;;;21.17;63.92
35226;BME280;21813;49.686;21.766;2023-05-21T08:46:48;98742.03;;;21.18;62.74
35226;BME280;21813;49.686;21.766;2023-05-21T08:49:16;98757.69;;;21.28;62.17
35226;BME280;21813;49.686;21.766;2023-05-21T08:51:44;98745.53;;;21.19;59.87
35226;BME280;21813;49.686;21.766;2023-05-21T08:54:11;98750.00;;;21.18;61.78
35226;BME280;21813;49.686;21.766;2023-05-21T08:56:39;98753.22;;;21.28;60.89
35226;BME280;21813;49.686;21.766;2023-05-21T08:59:11;98759.00;;;21.46;58.91
35226;BME280;21813;49.686;21.766;2023-05-21T09:01:37;98761.66;;;21.46;60.63
35226;BME280;21813;49.686;21.766;2023-05-21T09:04:07;98750.31;;;21.52;59.20
35226;BME280;21813;49.686;21.766;2023-05-21T09:06:33;98749.94;;;21.55;62.67
35226;BME280;21813;49.686;21.766;2023-05-21T09:09:04;98753.16;;;21.66;63.11
35226;BME280;21813;49.686;21.766;2023-05-21T09:11:40;98751.59;;;21.71;62.00
35226;BME280;21813;49.686;21.766;2023-05-21T09:14:10;98748.41;;;21.76;59.76
35226;BME280;21813;49.686;21.766;2023-05-21T09:16:42;98741.66;;;21.73;60.87
35226;BME280;21813;49.686;21.766;2023-05-21T09:19:08;98739.59;;;21.90;60.23
35226;BME280;21813;49.686;21.766;2023-05-21T09:21:34;98731.47;;;21.77;61.62
35226;BME280;21813;49.686;21.766;2023-05-21T09:24:02;98719.22;;;21.76;60.23
35226;BME280;21813;49.686;21.766;2023-05-21T09:26:31;98738.91;;;21.96;62.35
35226;BME280;21813;49.686;21.766;2023-05-21T09:29:04;98747.03;;;22.09;59.20
35226;BME280;21813;49.686;21.766;2023-05-21T09:31:30;98730.00;;;22.03;56.81
35226;BME280;21813;49.686;21.766;2023-05-21T09:33:58;98712.97;;;21.98;56.46
35226;BME280;21813;49.686;21.766;2023-05-21T09:36:24;98719.28;;;21.97;57.21
35226;BME280;21813;49.686;21.766;2023-05-21T09:38:50;98748.28;;;22.13;59.45
35226;BME280;21813;49.686;21.766;2023-05-21T09:41:30;98726.59;;;22.10;57.25
35226;BME280;21813;49.686;21.766;2023-05-21T09:44:03;98756.13;;;22.21;57.73
35226;BME280;21813;49.686;21.766;2023-05-21T09:46:38;98707.94;;;22.03;54.87
35226;BME280;21813;49.686;21.766;2023-05-21T09:49:06;98739.31;;;22.14;56.70
35226;BME280;21813;49.686;21.766;2023-05-21T09:51:32;98720.81;;;22.06;56.26
35226;BME280;21813;49.686;21.766;2023-05-21T09:53:59;98738.94;;;22.17;56.41
35226;BME280;21813;49.686;21.766;2023-05-21T09:56:46;98735.28;;;22.18;58.30
35226;BME280;21813;49.686;21.766;2023-05-21T09:59:34;98752.00;;;22.33;57.18
35226;BME280;21813;49.686;21.766;2023-05-21T10:02:01;98735.81;;;22.28;57.93
35226;BME280;21813;49.686;21.766;2023-05-21T10:04:33;98741.59;;;22.38;55.03
35226;BME280;21813;49.686;21.766;2023-05-21T10:07:27;98751.19;;;22.33;54.88
35226;BME280;21813;49.686;21.766;2023-05-21T10:09:59;98732.06;;;22.23;51.18
35226;BME280;21813;49.686;21.766;2023-05-21T10:12:26;98728.75;;;22.21;53.71
35226;BME280;21813;49.686;21.766;2023-05-21T10:15:08;98742.00;;;22.35;52.90
35226;BME280;21813;49.686;21.766;2023-05-21T10:24:56;98712.50;;;22.09;53.46
35226;BME280;21813;49.686;21.766;2023-05-21T10:27:30;98699.69;;;21.98;53.47
35226;BME280;21813;49.686;21.766;2023-05-21T10:29:58;98728.75;;;22.21;53.60
35226;BME280;21813;49.686;21.766;2023-05-21T10:32:26;98738.19;;;22.23;53.01
35226;BME280;21813;49.686;21.766;2023-05-21T10:34:56;98734.00;;;22.14;51.83
35226;BME280;21813;49.686;21.766;2023-05-21T10:37:24;98720.19;;;22.04;55.78
35226;BME280;21813;49.686;21.766;2023-05-21T10:39:54;98691.75;;;21.98;52.87
35226;BME280;21813;49.686;21.766;2023-05-21T10:44:59;98729.25;;;22.10;53.93
35226;BME280;21813;49.686;21.766;2023-05-21T10:52:54;98733.75;;;22.30;51.98
35226;BME280;21813;49.686;21.766;2023-05-21T10:56:04;98723.16;;;22.30;50.98
35226;BME280;21813;49.686;21.766;2023-05-21T11:01:17;98727.19;;;22.26;51.88
35226;BME280;21813;49.686;21.766;2023-05-21T11:03:48;98692.84;;;22.03;52.96
35226;BME280;21813;49.686;21.766;2023-05-21T11:06:25;98702.78;;;22.16;52.32
35226;BME280;21813;49.686;21.766;2023-05-21T11:08:53;98717.56;;;22.25;52.09
35226;BME280;21813;49.686;21.766;2023-05-21T11:12:00;98693.00;;;22.02;53.12
35226;BME280;21813;49.686;21.766;2023-05-21T11:14:36;98707.47;;;22.14;52.87
35226;BME280;21813;49.686;21.766;2023-05-21T11:17:09;98694.66;;;22.03;54.56
35226;BME280;21813;49.686;21.766;2023-05-21T11:22:22;98708.63;;;22.12;53.75
35226;BME280;21813;49.686;21.766;2023-05-21T11:24:59;98678.28;;;21.99;53.51
35226;BME280;21813;49.686;21.766;2023-05-21T11:27:33;98700.50;;;22.13;53.03
35226;BME280;21813;49.686;21.766;2023-05-21T11:30:14;98702.50;;;22.11;54.55
35226;BME280;21813;49.686;21.766;2023-05-21T11:38:13;98703.16;;;22.13;53.13
35226;BME280;21813;49.686;21.766;2023-05-21T11:40:51;98707.91;;;22.18;51.91
35226;BME280;21813;49.686;21.766;2023-05-21T11:43:19;98676.47;;;22.00;53.74
35226;BME280;21813;49.686;21.766;2023-05-21T11:45:45;98695.09;;;22.07;53.19
35226;BME280;21813;49.686;21.766;2023-05-21T11:48:15;98699.03;;;22.11;53.43
35226;BME280;21813;49.686;21.766;2023-05-21T11:50:44;98678.72;;;22.03;53.34
35226;BME280;21813;49.686;21.766;2023-05-21T11:53:10;98667.66;;;21.99;53.74
35226;BME280;21813;49.686;21.766;2023-05-21T11:55:45;98694.25;;;22.21;51.43
35226;BME280;21813;49.686;21.766;2023-05-21T11:58:12;98674.69;;;22.07;53.46
35226;BME280;21813;49.686;21.766;2023-05-21T12:00:43;98658.72;;;22.00;52.74
35226;BME280;21813;49.686;21.766;2023-05-21T12:03:12;98697.72;;;22.21;52.73
35226;BME280;21813;49.686;21.766;2023-05-21T12:05:48;98694.94;;;22.29;52.83
35226;BME280;21813;49.686;21.766;2023-05-21T12:08:23;98667.72;;;22.06;51.55
35226;BME280;21813;49.686;21.766;2023-05-21T12:10:59;98667.38;;;22.09;53.56
35226;BME280;21813;49.686;21.766;2023-05-21T12:13:27;98662.06;;;22.09;55.05
35226;BME280;21813;49.686;21.766;2023-05-21T12:15:53;98664.91;;;22.08;55.04
35226;BME280;21813;49.686;21.766;2023-05-21T12:18:19;98671.13;;;22.15;53.34
35226;BME280;21813;49.686;21.766;2023-05-21T12:20:46;98668.38;;;22.08;55.33
35226;BME280;21813;49.686;21.766;2023-05-21T12:23:19;98667.81;;;22.13;55.55
35226;BME280;21813;49.686;21.766;2023-05-21T12:25:49;98681.78;;;22.21;53.75
35226;BME280;21813;49.686;21.766;2023-05-21T12:28:15;98691.78;;;22.19;53.65
35226;BME280;21813;49.686;21.766;2023-05-21T12:30:43;98690.13;;;22.18;55.50
35226;BME280;21813;49.686;21.766;2023-05-21T12:33:08;98695.63;;;22.17;55.03
35226;BME280;21813;49.686;21.766;2023-05-21T12:35:36;98685.84;;;22.17;54.73
35226;BME280;21813;49.686;21.766;2023-05-21T12:41:10;98681.91;;;22.13;56.20
35226;BME280;21813;49.686;21.766;2023-05-21T12:43:42;98681.91;;;22.13;55.68
35226;BME280;21813;49.686;21.766;2023-05-21T12:46:10;98664.50;;;22.11;57.21
35226;BME280;21813;49.686;21.766;2023-05-21T12:48:52;98681.34;;;22.18;58.14
35226;BME280;21813;49.686;21.766;2023-05-21T12:51:19;98660.22;;;22.10;57.47
35226;BME280;21813;49.686;21.766;2023-05-21T12:53:45;98665.25;;;22.19;58.15
35226;BME280;21813;49.686;21.766;2023-05-21T12:56:14;98680.47;;;22.32;60.42
35226;BME280;21813;49.686;21.766;2023-05-21T12:58:49;98638.78;;;22.11;58.05
35226;BME280;21813;49.686;21.766;2023-05-21T13:01:56;98629.13;;;22.03;56.83
35226;BME280;21813;49.686;21.766;2023-05-21T13:04:26;98676.84;;;22.39;57.59
35226;BME280;21813;49.686;21.766;2023-05-21T13:10:32;98657.75;;;22.29;57.06
35226;BME280;21813;49.686;21.766;2023-05-21T13:12:58;98676.59;;;22.34;56.08
35226;BME280;21813;49.686;21.766;2023-05-21T13:15:24;98671.09;;;22.36;53.68
35226;BME280;21813;49.686;21.766;2023-05-21T13:17:53;98662.06;;;22.30;56.33
35226;BME280;21813;49.686;21.766;2023-05-21T13:20:37;98647.53;;;22.26;54.80
35226;BME280;21813;49.686;21.766;2023-05-21T13:23:04;98661.94;;;22.38;56.67
35226;BME280;21813;49.686;21.766;2023-05-21T13:25:32;98672.19;;;22.41;56.30
35226;BME280;21813;49.686;21.766;2023-05-21T13:28:27;98647.78;;;22.31;55.10
35226;BME280;21813;49.686;21.766;2023-05-21T13:30:53;98661.56;;;22.41;55.67
35226;BME280;21813;49.686;21.766;2023-05-21T13:33:30;98633.25;;;22.27;54.99
35226;BME280;21813;49.686;21.766;2023-05-21T13:35:55;98631.19;;;22.29;54.78
35226;BME280;21813;49.686;21.766;2023-05-21T13:41:12;98637.66;;;22.20;51.53
35226;BME280;21813;49.686;21.766;2023-05-21T13:43:42;98610.22;;;22.13;52.42
35226;BME280;21813;49.686;21.766;2023-05-21T13:46:11;98624.50;;;22.12;52.56
35226;BME280;21813;49.686;21.766;2023-05-21T13:48:39;98641.63;;;22.31;52.47
35226;BME280;21813;49.686;21.766;2023-05-21T13:51:10;98606.94;;;22.11;55.01
35226;BME280;21813;49.686;21.766;2023-05-21T13:53:43;98609.00;;;22.16;54.06
35226;BME280;21813;49.686;21.766;2023-05-21T13:56:36;98591.00;;;22.11;51.21
35226;BME280;21813;49.686;21.766;2023-05-21T14:01:38;98615.16;;;22.16;52.64
35226;BME280;21813;49.686;21.766;2023-05-21T14:04:04;98643.91;;;22.34;51.37
35226;BME280;21813;49.686;21.766;2023-05-21T14:06:36;98625.88;;;22.29;51.98
35226;BME280;21813;49.686;21.766;2023-05-21T14:09:07;98600.00;;;22.10;51.90
35226;BME280;21813;49.686;21.766;2023-05-21T14:11:35;98609.47;;;22.19;49.71
35226;BME280;21813;49.686;21.766;2023-05-21T14:14:04;98634.50;;;22.31;51.56
35226;BME280;21813;49.686;21.766;2023-05-21T14:16:33;98608.75;;;22.11;50.04
35226;BME280;21813;49.686;21.766;2023-05-21T14:19:26;98611.63;;;22.09;50.43
35226;BME280;21813;49.686;21.766;2023-05-21T14:22:10;98607.31;;;22.08;50.26
35226;BME280;21813;49.686;21.766;2023-05-21T14:24:59;98634.25;;;22.26;51.89
35226;BME280;21813;49.686;21.766;2023-05-21T14:27:28;98633.25;;;22.27;52.99
35226;BME280;21813;49.686;21.766;2023-05-21T14:29:54;98631.59;;;22.26;50.96
35226;BME280;21813;49.686;21.766;2023-05-21T14:32:23;98597.53;;;22.09;50.82
35226;BME280;21813;49.686;21.766;2023-05-21T14:34:49;98622.75;;;22.19;52.19
35226;BME280;21813;49.686;21.766;2023-05-21T14:37:24;98625.69;;;22.31;50.89
35226;BME280;21813;49.686;21.766;2023-05-21T14:39:52;98609.00;;;22.16;51.45
35226;BME280;21813;49.686;21.766;2023-05-21T14:42:23;98600.47;;;22.20;51.27
35226;BME280;21813;49.686;21.766;2023-05-21T14:47:22;98600.88;;;22.17;50.40
35226;BME280;21813;49.686;21.766;2023-05-21T14:49:48;98595.03;;;22.07;48.54